Time,TemperatureF,DewpointF,PressureIn,WindDirection,WindDirectionDegrees,WindSpeedMPH,WindSpeedGustMPH,Humidity,HourlyPrecipIn,Conditions,Clouds,dailyrainin,SoftwareType,DateUTC
2013-01-30 00:00:00,31.3,23.0,30.03,North,0,0.0,0.0,71,0.00,,OVC011,0.00,VWS V13.01,2013-01-30 05:00:00,
2013-01-30 00:01:00,31.5,23.2,30.03,North,0,0.0,0.0,71,0.00,,OVC011,0.00,VWS V13.01,2013-01-30 05:01:00,
2013-01-30 00:03:00,31.5,23.2,30.03,North,0,0.0,0.0,71,0.00,,OVC011,0.00,VWS V13.01,2013-01-30 05:03:00,
2013-01-30 00:08:00,31.6,23.3,30.03,North,0,0.0,0.0,71,0.00,,OVC011,0.00,VWS V13.01,2013-01-30 05:08:00,
2013-01-30 00:13:00,31.6,23.7,30.03,North,0,0.0,0.0,72,0.00,,OVC011,0.00,VWS V13.01,2013-01-30 05:13:00,
2013-01-30 00:18:00,31.8,23.8,30.03,North,0,0.0,0.0,72,0.00,,OVC011,0.00,VWS V13.01,2013-01-30 05:18:00,
2013-01-30 00:23:00,31.8,24.2,30.03,North,0,0.0,0.0,73,0.00,,OVC011,0.00,VWS V13.01,2013-01-30 05:23:00,
2013-01-30 00:28:00,32.0,24.3,30.03,North,0,0.0,0.0,73,0.00,,OVC011,0.00,VWS V13.01,2013-01-30 05:28:00,
2013-01-30 00:33:00,32.2,24.8,30.03,North,0,0.0,0.0,74,0.00,,OVC011,0.00,VWS V13.01,2013-01-30 05:33:00,
2013-01-30 00:38:00,32.2,24.8,30.03,North,0,0.0,0.0,74,0.00,,OVC011,0.00,VWS V13.01,2013-01-30 05:38:00,
2013-01-30 00:43:00,32.4,25.3,30.03,North,0,0.0,0.0,75,0.00,,OVC011,0.00,VWS V13.01,2013-01-30 05:43:00,
2013-01-30 00:48:00,32.4,25.3,30.03,North,0,0.0,0.0,75,0.00,,OVC011,0.00,VWS V13.01,2013-01-30 05:48:00,
2013-01-30 00:53:00,32.4,25.3,30.03,North,0,0.0,0.0,75,0.00,,OVC011,0.00,VWS V13.01,2013-01-30 05:53:00,
2013-01-30 00:58:00,32.4,25.6,30.03,North,0,0.0,0.0,76,0.00,,OVC011,0.00,VWS V13.01,2013-01-30 05:58:00,
2013-01-30 01:03:00,32.4,25.6,30.03,North,0,0.0,0.0,76,0.00,,OVC011,0.00,VWS V13.01,2013-01-30 06:03:00,
2013-01-30 01:08:00,32.4,25.6,30.03,North,0,0.0,0.0,76,0.00,,OVC011,0.00,VWS V13.01,2013-01-30 06:08:00,
2013-01-30 01:13:00,32.5,25.8,30.03,North,0,0.0,0.0,76,0.00,,OVC011,0.00,VWS V13.01,2013-01-30 06:13:00,
2013-01-30 01:18:00,32.5,26.1,30.03,North,0,0.0,0.0,77,0.00,,OVC011,0.00,VWS V13.01,2013-01-30 06:18:00,
2013-01-30 01:23:00,32.5,26.1,30.00,North,0,0.0,0.0,77,0.00,,OVC011,0.00,VWS V13.01,2013-01-30 06:23:00,
2013-01-30 01:28:00,32.5,26.1,30.00,North,0,0.0,0.0,77,0.00,,OVC011,0.00,VWS V13.01,2013-01-30 06:28:00,
2013-01-30 01:33:00,32.7,26.6,30.00,North,0,0.0,0.0,78,0.00,,OVC011,0.00,VWS V13.01,2013-01-30 06:33:00,
2013-01-30 01:39:00,32.7,26.6,30.00,North,0,0.0,0.0,78,0.00,,OVC011,0.00,VWS V13.01,2013-01-30 06:39:00,
2013-01-30 01:44:00,32.7,26.6,30.00,North,0,0.0,0.0,78,0.00,,OVC011,0.00,VWS V13.01,2013-01-30 06:44:00,
2013-01-30 01:49:00,32.7,26.9,30.00,North,0,0.0,0.0,79,0.00,,OVC011,0.00,VWS V13.01,2013-01-30 06:49:00,
2013-01-30 01:54:00,32.7,26.9,30.00,North,0,0.0,0.0,79,0.00,,OVC011,0.00,VWS V13.01,2013-01-30 06:54:00,
2013-01-30 01:59:00,32.9,27.1,30.00,North,0,0.0,0.0,79,0.00,,OVC011,0.00,VWS V13.01,2013-01-30 06:59:00,
2013-01-30 02:04:00,32.7,26.9,30.00,North,0,0.0,0.0,79,0.00,,OVC011,0.00,VWS V13.01,2013-01-30 07:04:00,
2013-01-30 02:09:00,32.7,26.9,30.00,North,0,0.0,0.0,79,0.00,,OVC011,0.00,VWS V13.01,2013-01-30 07:09:00,
2013-01-30 02:14:00,32.7,27.2,30.00,North,0,0.0,0.0,80,0.00,,OVC011,0.00,VWS V13.01,2013-01-30 07:14:00,
2013-01-30 02:19:00,32.7,27.2,30.00,North,0,0.0,0.0,80,0.00,,OVC011,0.00,VWS V13.01,2013-01-30 07:19:00,
2013-01-30 02:24:00,32.7,27.2,29.97,North,0,0.0,0.0,80,0.00,,OVC011,0.00,VWS V13.01,2013-01-30 07:24:00,
2013-01-30 02:29:00,32.9,27.4,29.97,North,0,0.0,0.0,80,0.00,,OVC011,0.00,VWS V13.01,2013-01-30 07:29:00,
2013-01-30 02:34:00,32.9,27.7,29.97,North,0,0.0,0.0,81,0.00,,OVC011,0.00,VWS V13.01,2013-01-30 07:34:00,
2013-01-30 02:39:00,32.9,27.7,29.97,North,0,0.0,0.0,81,0.00,,OVC011,0.00,VWS V13.01,2013-01-30 07:39:00,
2013-01-30 02:44:00,32.9,27.7,29.97,North,0,0.0,0.0,81,0.00,,OVC011,0.00,VWS V13.01,2013-01-30 07:44:00,
2013-01-30 02:49:00,32.9,27.7,29.97,North,0,0.0,0.0,81,0.00,,OVC011,0.00,VWS V13.01,2013-01-30 07:49:00,
2013-01-30 02:54:00,32.9,28.0,29.97,North,0,0.0,0.0,82,0.00,,OVC009,0.00,VWS V13.01,2013-01-30 07:54:00,
2013-01-30 02:59:00,32.9,28.0,29.97,North,0,0.0,0.0,82,0.00,,OVC009,0.00,VWS V13.01,2013-01-30 07:59:00,
2013-01-30 03:04:00,32.9,28.0,29.97,North,0,0.0,0.0,82,0.00,,OVC009,0.00,VWS V13.01,2013-01-30 08:04:00,
2013-01-30 03:09:00,32.9,28.0,29.94,North,0,0.0,0.0,82,0.00,,OVC009,0.00,VWS V13.01,2013-01-30 08:09:00,
2013-01-30 03:14:00,32.9,28.3,29.94,North,0,0.0,0.0,83,0.00,,OVC009,0.00,VWS V13.01,2013-01-30 08:14:00,
2013-01-30 03:19:00,32.9,28.3,29.94,North,0,0.0,0.0,83,0.00,,OVC009,0.00,VWS V13.01,2013-01-30 08:19:00,
2013-01-30 03:24:00,32.9,28.3,29.94,North,0,0.0,0.0,83,0.00,,OVC009,0.00,VWS V13.01,2013-01-30 08:24:00,
2013-01-30 03:29:00,32.9,28.3,29.94,North,0,0.0,0.0,83,0.00,,OVC009,0.00,VWS V13.01,2013-01-30 08:29:00,
2013-01-30 03:34:00,32.9,28.3,29.94,North,0,0.0,0.0,83,0.00,,OVC009,0.00,VWS V13.01,2013-01-30 08:34:00,
2013-01-30 03:39:00,33.1,28.5,29.94,North,0,0.0,0.0,83,0.00,,OVC009,0.00,VWS V13.01,2013-01-30 08:39:00,
2013-01-30 03:44:00,33.1,28.5,29.94,North,0,0.0,0.0,83,0.00,,OVC009,0.00,VWS V13.01,2013-01-30 08:44:00,
2013-01-30 03:49:00,33.1,28.5,29.94,North,0,0.0,0.0,83,0.00,,OVC009,0.00,VWS V13.01,2013-01-30 08:49:00,
2013-01-30 03:54:00,32.9,28.3,29.94,North,0,0.0,0.0,83,0.00,,OVC003,0.00,VWS V13.01,2013-01-30 08:54:00,
2013-01-30 03:59:00,32.9,28.3,29.94,North,0,0.0,0.0,83,0.00,,OVC003,0.00,VWS V13.01,2013-01-30 08:59:00,
2013-01-30 04:04:00,32.9,28.3,29.94,North,0,0.0,0.0,83,0.00,,OVC003,0.00,VWS V13.01,2013-01-30 09:04:00,
2013-01-30 04:09:00,33.1,28.8,29.94,North,0,0.0,0.0,84,0.00,,OVC003,0.00,VWS V13.01,2013-01-30 09:09:00,
2013-01-30 04:14:00,33.1,28.8,29.94,North,0,0.0,0.0,84,0.00,,OVC003,0.00,VWS V13.01,2013-01-30 09:14:00,
2013-01-30 04:19:00,33.1,28.8,29.94,North,0,0.0,0.0,84,0.00,,OVC003,0.00,VWS V13.01,2013-01-30 09:19:00,
2013-01-30 04:24:00,33.1,28.8,29.91,North,0,0.0,0.0,84,0.00,,OVC003,0.00,VWS V13.01,2013-01-30 09:24:00,
2013-01-30 04:29:00,33.1,28.8,29.91,North,0,0.0,0.0,84,0.00,,OVC003,0.00,VWS V13.01,2013-01-30 09:29:00,
2013-01-30 04:34:00,33.1,28.8,29.91,North,0,0.0,0.0,84,0.00,,OVC003,0.00,VWS V13.01,2013-01-30 09:34:00,
2013-01-30 04:40:00,32.9,28.6,29.91,North,0,0.0,0.0,84,0.00,,OVC003,0.00,VWS V13.01,2013-01-30 09:40:00,
2013-01-30 04:45:00,33.1,28.8,29.91,North,0,0.0,0.0,84,0.00,,OVC003,0.00,VWS V13.01,2013-01-30 09:45:00,
2013-01-30 04:50:00,32.9,28.6,29.91,North,0,0.0,0.0,84,0.00,,OVC003,0.00,VWS V13.01,2013-01-30 09:50:00,
2013-01-30 04:55:00,32.9,28.6,29.91,North,0,0.0,0.0,84,0.00,,OVC003,0.00,VWS V13.01,2013-01-30 09:55:00,
2013-01-30 05:00:00,32.9,28.6,29.91,North,0,0.0,0.0,84,0.00,,OVC003,0.00,VWS V13.01,2013-01-30 10:00:00,
2013-01-30 05:05:00,32.9,28.6,29.91,North,0,0.0,0.0,84,0.00,,OVC003,0.00,VWS V13.01,2013-01-30 10:05:00,
2013-01-30 05:10:00,32.9,28.6,29.91,North,0,0.0,0.0,84,0.00,,OVC003,0.00,VWS V13.01,2013-01-30 10:10:00,
2013-01-30 05:15:00,32.9,28.6,29.91,North,0,0.0,0.0,84,0.00,,OVC003,0.00,VWS V13.01,2013-01-30 10:15:00,
2013-01-30 05:20:00,32.9,28.6,29.91,North,0,0.0,0.0,84,0.00,,OVC003,0.00,VWS V13.01,2013-01-30 10:20:00,
2013-01-30 05:25:00,33.1,28.8,29.88,North,0,0.0,0.0,84,0.00,,OVC003,0.00,VWS V13.01,2013-01-30 10:25:00,
2013-01-30 05:30:00,33.1,29.1,29.88,North,0,0.0,0.0,85,0.00,,OVC003,0.00,VWS V13.01,2013-01-30 10:30:00,
2013-01-30 05:35:00,33.1,29.1,29.88,North,0,0.0,0.0,85,0.00,,OVC003,0.00,VWS V13.01,2013-01-30 10:35:00,
2013-01-30 05:40:00,33.1,29.1,29.88,North,0,0.0,0.0,85,0.00,,OVC003,0.00,VWS V13.01,2013-01-30 10:40:00,
2013-01-30 05:45:00,33.1,29.1,29.88,North,0,0.0,0.0,85,0.00,,OVC003,0.00,VWS V13.01,2013-01-30 10:45:00,
2013-01-30 05:50:00,33.1,29.1,29.88,North,0,0.0,0.0,85,0.00,,OVC003,0.00,VWS V13.01,2013-01-30 10:50:00,
2013-01-30 05:55:00,33.1,29.1,29.88,North,0,0.0,0.0,85,0.00,,OVC004,0.00,VWS V13.01,2013-01-30 10:55:00,
2013-01-30 06:00:00,33.1,29.1,29.88,North,0,0.0,0.0,85,0.00,,OVC004,0.00,VWS V13.01,2013-01-30 11:00:00,
2013-01-30 06:05:00,33.1,29.1,29.88,North,0,0.0,0.0,85,0.00,,OVC004,0.00,VWS V13.01,2013-01-30 11:05:00,
2013-01-30 06:10:00,33.1,29.1,29.88,North,0,0.0,0.0,85,0.00,,OVC004,0.00,VWS V13.01,2013-01-30 11:10:00,
2013-01-30 06:15:00,33.1,29.1,29.88,North,0,0.0,0.0,85,0.00,,OVC004,0.00,VWS V13.01,2013-01-30 11:15:00,
2013-01-30 06:20:00,33.1,29.1,29.88,North,0,0.0,0.0,85,0.00,,OVC004,0.00,VWS V13.01,2013-01-30 11:20:00,
2013-01-30 06:25:00,33.1,29.1,29.88,North,0,0.0,0.0,85,0.00,,OVC004,0.00,VWS V13.01,2013-01-30 11:25:00,
2013-01-30 06:30:00,33.1,29.1,29.88,North,0,0.0,0.0,85,0.00,,OVC004,0.00,VWS V13.01,2013-01-30 11:30:00,
2013-01-30 06:35:00,33.1,29.1,29.88,North,0,0.0,0.0,85,0.00,,OVC004,0.00,VWS V13.01,2013-01-30 11:35:00,
2013-01-30 06:40:00,33.1,29.1,29.85,North,0,0.0,0.0,85,0.00,,OVC004,0.00,VWS V13.01,2013-01-30 11:40:00,
2013-01-30 06:45:00,33.3,29.2,29.85,North,0,0.0,0.0,85,0.00,,OVC004,0.00,VWS V13.01,2013-01-30 11:45:00,
2013-01-30 06:50:00,33.3,29.2,29.85,North,0,0.0,0.0,85,0.00,,OVC004,0.00,VWS V13.01,2013-01-30 11:50:00,
2013-01-30 06:55:00,33.3,29.2,29.85,North,0,0.0,0.0,85,0.00,,OVC004,0.00,VWS V13.01,2013-01-30 11:55:00,
2013-01-30 07:00:00,33.1,29.1,29.85,North,0,0.0,0.0,85,0.00,,OVC004,0.00,VWS V13.01,2013-01-30 12:00:00,
2013-01-30 07:05:00,33.1,29.1,29.85,North,0,0.0,0.0,85,0.00,,OVC004,0.00,VWS V13.01,2013-01-30 12:05:00,
2013-01-30 07:10:00,33.1,29.1,29.85,North,0,0.0,0.0,85,0.00,,OVC004,0.00,VWS V13.01,2013-01-30 12:10:00,
2013-01-30 07:15:00,33.1,29.1,29.85,North,0,0.0,0.0,85,0.00,,OVC004,0.00,VWS V13.01,2013-01-30 12:15:00,
2013-01-30 07:20:00,33.1,29.1,29.85,North,0,0.0,0.0,85,0.00,,OVC004,0.00,VWS V13.01,2013-01-30 12:20:00,
2013-01-30 07:25:00,33.1,29.1,29.85,North,0,0.0,0.0,85,0.00,,OVC004,0.00,VWS V13.01,2013-01-30 12:25:00,
2013-01-30 07:30:00,33.3,29.2,29.85,North,0,0.0,0.0,85,0.00,,OVC004,0.00,VWS V13.01,2013-01-30 12:30:00,
2013-01-30 07:35:00,33.3,29.2,29.85,North,0,0.0,0.0,85,0.00,,OVC004,0.00,VWS V13.01,2013-01-30 12:35:00,
2013-01-30 07:40:00,33.3,29.2,29.82,North,0,0.0,0.0,85,0.00,,OVC004,0.00,VWS V13.01,2013-01-30 12:40:00,
2013-01-30 07:45:00,33.3,29.2,29.82,North,0,0.0,0.0,85,0.00,,OVC004,0.00,VWS V13.01,2013-01-30 12:45:00,
2013-01-30 07:50:00,33.3,29.2,29.82,North,0,0.0,0.0,85,0.00,,OVC005,0.00,VWS V13.01,2013-01-30 12:50:00,
2013-01-30 07:55:00,33.4,29.4,29.82,North,0,0.0,0.0,85,0.00,,OVC005,0.00,VWS V13.01,2013-01-30 12:55:00,
2013-01-30 08:00:00,33.3,29.2,29.82,North,0,0.0,0.0,85,0.00,,OVC005,0.00,VWS V13.01,2013-01-30 13:00:00,
2013-01-30 08:05:00,33.3,29.2,29.82,North,0,0.0,0.0,85,0.00,,OVC005,0.00,VWS V13.01,2013-01-30 13:05:00,
2013-01-30 08:10:00,33.3,29.2,29.82,North,0,0.0,0.0,85,0.00,,OVC005,0.00,VWS V13.01,2013-01-30 13:10:00,
2013-01-30 08:15:00,33.3,29.2,29.82,North,0,0.0,0.0,85,0.00,,OVC005,0.00,VWS V13.01,2013-01-30 13:15:00,
2013-01-30 08:20:00,33.3,29.2,29.82,North,0,0.0,0.0,85,0.00,,OVC005,0.00,VWS V13.01,2013-01-30 13:20:00,
2013-01-30 08:25:00,33.3,29.2,29.82,North,0,0.0,0.0,85,0.00,,OVC005,0.00,VWS V13.01,2013-01-30 13:25:00,
2013-01-30 08:30:00,33.4,29.4,29.82,North,0,0.0,0.0,85,0.00,,OVC005,0.00,VWS V13.01,2013-01-30 13:30:00,
2013-01-30 08:35:00,33.6,29.6,29.82,North,0,0.0,0.0,85,0.00,,OVC005,0.00,VWS V13.01,2013-01-30 13:35:00,
2013-01-30 08:40:00,33.6,29.6,29.79,North,0,0.0,0.0,85,0.00,,OVC005,0.00,VWS V13.01,2013-01-30 13:40:00,
2013-01-30 08:45:00,33.6,29.6,29.79,North,0,0.0,0.0,85,0.00,,OVC005,0.00,VWS V13.01,2013-01-30 13:45:00,
2013-01-30 08:50:00,33.6,29.6,29.79,North,0,0.0,0.0,85,0.00,,OVC003,0.00,VWS V13.01,2013-01-30 13:50:00,
2013-01-30 08:55:00,33.8,29.8,29.79,North,0,0.0,0.0,85,0.00,,OVC003,0.00,VWS V13.01,2013-01-30 13:55:00,
2013-01-30 09:00:00,33.8,29.8,29.79,North,0,0.0,0.0,85,0.00,,OVC003,0.00,VWS V13.01,2013-01-30 14:00:00,
2013-01-30 09:05:00,33.8,29.8,29.79,North,0,0.0,0.0,85,0.00,,OVC003,0.00,VWS V13.01,2013-01-30 14:05:00,
2013-01-30 09:11:00,33.8,29.8,29.79,North,0,0.0,0.0,85,0.00,,OVC003,0.00,VWS V13.01,2013-01-30 14:11:00,
2013-01-30 09:16:00,33.8,29.8,29.79,North,0,0.0,0.0,85,0.00,,OVC003,0.00,VWS V13.01,2013-01-30 14:16:00,
2013-01-30 09:21:00,34.0,30.0,29.79,North,0,0.0,0.0,85,0.00,,OVC003,0.00,VWS V13.01,2013-01-30 14:21:00,
2013-01-30 09:26:00,34.0,30.0,29.76,North,0,0.0,0.0,85,0.00,,OVC003,0.00,VWS V13.01,2013-01-30 14:26:00,
2013-01-30 09:31:00,34.0,30.0,29.76,North,0,0.0,0.0,85,0.00,,OVC003,0.00,VWS V13.01,2013-01-30 14:31:00,
2013-01-30 09:36:00,34.2,30.1,29.76,North,0,0.0,0.0,85,0.00,,OVC003,0.00,VWS V13.01,2013-01-30 14:36:00,
2013-01-30 09:41:00,34.2,30.1,29.76,North,0,0.0,0.0,85,0.00,,OVC003,0.00,VWS V13.01,2013-01-30 14:41:00,
2013-01-30 09:46:00,34.2,30.1,29.76,North,0,0.0,0.0,85,0.00,,OVC003,0.00,VWS V13.01,2013-01-30 14:46:00,
2013-01-30 09:51:00,34.2,30.1,29.76,North,0,0.0,0.0,85,0.00,,OVC004,0.00,VWS V13.01,2013-01-30 14:51:00,
2013-01-30 09:56:00,34.3,30.3,29.76,North,0,0.0,0.0,85,0.00,,OVC004,0.00,VWS V13.01,2013-01-30 14:56:00,
2013-01-30 10:01:00,34.7,30.7,29.76,North,0,0.0,0.0,85,0.00,,OVC004,0.00,VWS V13.01,2013-01-30 15:01:00,
2013-01-30 10:06:00,34.9,30.8,29.76,North,0,0.0,0.0,85,0.00,,OVC004,0.00,VWS V13.01,2013-01-30 15:06:00,
2013-01-30 10:11:00,34.7,30.7,29.76,North,0,0.0,0.0,85,0.00,,OVC004,0.00,VWS V13.01,2013-01-30 15:11:00,
2013-01-30 10:16:00,34.7,30.7,29.76,North,0,0.0,0.0,85,0.00,,OVC004,0.00,VWS V13.01,2013-01-30 15:16:00,
2013-01-30 10:21:00,34.9,30.8,29.76,North,0,0.0,0.0,85,0.00,,OVC004,0.00,VWS V13.01,2013-01-30 15:21:00,
2013-01-30 10:26:00,34.9,30.8,29.73,North,0,0.0,0.0,85,0.00,,OVC004,0.00,VWS V13.01,2013-01-30 15:26:00,
2013-01-30 10:31:00,35.2,31.2,29.73,North,0,0.0,0.0,85,0.00,,OVC003,0.00,VWS V13.01,2013-01-30 15:31:00,
2013-01-30 10:36:00,35.4,31.7,29.73,North,0,0.0,0.0,86,0.00,,OVC003,0.00,VWS V13.01,2013-01-30 15:36:00,
2013-01-30 10:41:00,36.0,32.2,29.73,North,0,0.0,0.0,86,0.00,,OVC003,0.00,VWS V13.01,2013-01-30 15:41:00,
2013-01-30 10:46:00,36.7,32.9,29.73,North,0,0.0,0.0,86,0.00,,OVC003,0.00,VWS V13.01,2013-01-30 15:46:00,
2013-01-30 10:51:00,37.0,33.2,29.73,North,0,0.0,0.0,86,0.00,,OVC003,0.00,VWS V13.01,2013-01-30 15:51:00,
2013-01-30 10:56:00,38.1,34.6,29.70,North,0,0.0,0.0,87,0.00,,OVC003,0.00,VWS V13.01,2013-01-30 15:56:00,
2013-01-30 11:01:00,40.3,37.0,29.70,North,0,0.0,0.0,88,0.00,,OVC003,0.00,VWS V13.01,2013-01-30 16:01:00,
2013-01-30 11:06:00,41.2,37.9,29.70,North,0,0.0,0.0,88,0.00,,OVC003,0.00,VWS V13.01,2013-01-30 16:06:00,
2013-01-30 11:11:00,41.7,38.4,29.70,North,0,0.0,0.0,88,0.00,,OVC003,0.00,VWS V13.01,2013-01-30 16:11:00,
2013-01-30 11:16:00,42.3,39.0,29.70,North,0,0.0,0.0,88,0.00,,OVC003,0.00,VWS V13.01,2013-01-30 16:16:00,
2013-01-30 11:21:00,42.3,39.0,29.70,North,0,0.0,0.0,88,0.00,,OVC003,0.00,VWS V13.01,2013-01-30 16:21:00,
2013-01-30 11:26:00,42.6,39.3,29.70,North,0,0.0,0.0,88,0.00,,OVC003,0.00,VWS V13.01,2013-01-30 16:26:00,
2013-01-30 11:31:00,42.8,39.5,29.70,North,0,0.0,0.0,88,0.00,,OVC003,0.00,VWS V13.01,2013-01-30 16:31:00,
2013-01-30 11:36:00,43.0,39.7,29.70,North,0,0.0,0.0,88,0.00,,OVC003,0.00,VWS V13.01,2013-01-30 16:36:00,
2013-01-30 11:41:00,43.3,40.3,29.67,North,0,0.0,0.0,89,0.00,,OVC003,0.00,VWS V13.01,2013-01-30 16:41:00,
2013-01-30 11:46:00,43.7,40.7,29.67,North,0,0.0,0.0,89,0.00,,OVC003,0.00,VWS V13.01,2013-01-30 16:46:00,
2013-01-30 11:51:00,44.1,41.3,29.67,North,0,0.0,0.0,90,0.00,,OVC004,0.00,VWS V13.01,2013-01-30 16:51:00,
2013-01-30 11:56:00,44.2,41.5,29.67,North,0,0.0,0.0,90,0.00,,OVC004,0.00,VWS V13.01,2013-01-30 16:56:00,
2013-01-30 12:01:00,44.2,41.5,29.67,North,0,0.0,0.0,90,0.00,,OVC004,0.00,VWS V13.01,2013-01-30 17:01:00,
2013-01-30 12:06:00,44.8,42.0,29.64,North,0,0.0,0.0,90,0.00,,OVC004,0.00,VWS V13.01,2013-01-30 17:06:00,
2013-01-30 12:11:00,44.8,42.0,29.64,North,0,0.0,0.0,90,0.00,,OVC004,0.00,VWS V13.01,2013-01-30 17:11:00,
2013-01-30 12:16:00,45.0,42.2,29.64,North,0,0.0,0.0,90,0.00,,OVC004,0.00,VWS V13.01,2013-01-30 17:16:00,
2013-01-30 12:21:00,45.5,43.0,29.64,North,0,0.0,0.0,91,0.00,,OVC004,0.00,VWS V13.01,2013-01-30 17:21:00,
2013-01-30 12:26:00,45.5,43.0,29.64,North,0,0.0,0.0,91,0.00,,OVC004,0.00,VWS V13.01,2013-01-30 17:26:00,
2013-01-30 12:31:00,45.3,42.8,29.64,North,0,0.0,0.0,91,0.00,,OVC004,0.00,VWS V13.01,2013-01-30 17:31:00,
2013-01-30 12:36:00,45.3,42.8,29.64,North,0,0.0,0.0,91,0.00,,OVC004,0.00,VWS V13.01,2013-01-30 17:36:00,
2013-01-30 12:41:00,45.7,43.2,29.61,North,0,0.0,0.0,91,0.00,,OVC004,0.00,VWS V13.01,2013-01-30 17:41:00,
2013-01-30 12:46:00,46.2,43.7,29.61,North,0,0.0,0.0,91,0.00,,OVC004,0.00,VWS V13.01,2013-01-30 17:46:00,
2013-01-30 12:51:00,46.6,44.1,29.61,North,0,0.0,0.0,91,0.00,,OVC003,0.00,VWS V13.01,2013-01-30 17:51:00,
2013-01-30 12:56:00,46.8,44.6,29.61,North,0,0.0,0.0,92,0.00,,OVC003,0.00,VWS V13.01,2013-01-30 17:56:00,
2013-01-30 13:02:00,46.9,44.7,29.61,North,0,0.0,0.0,92,0.00,,OVC003,0.00,VWS V13.01,2013-01-30 18:02:00,
2013-01-30 13:07:00,46.6,44.4,29.61,North,0,0.0,0.0,92,0.00,,OVC003,0.00,VWS V13.01,2013-01-30 18:07:00,
2013-01-30 13:12:00,46.4,44.2,29.61,North,0,0.0,0.0,92,0.00,,OVC003,0.00,VWS V13.01,2013-01-30 18:12:00,
2013-01-30 13:17:00,46.0,43.8,29.61,North,0,0.0,0.0,92,0.00,,OVC003,0.00,VWS V13.01,2013-01-30 18:17:00,
2013-01-30 13:22:00,45.9,43.7,29.58,North,0,0.0,0.0,92,0.00,,OVC003,0.00,VWS V13.01,2013-01-30 18:22:00,
2013-01-30 13:27:00,45.9,43.7,29.58,North,0,0.0,0.0,92,0.00,,OVC003,0.00,VWS V13.01,2013-01-30 18:27:00,
2013-01-30 13:32:00,45.7,43.5,29.58,North,0,0.0,0.0,92,0.00,,OVC002,0.00,VWS V13.01,2013-01-30 18:32:00,
2013-01-30 13:37:00,45.5,43.3,29.58,North,0,0.0,0.0,92,0.00,,OVC002,0.00,VWS V13.01,2013-01-30 18:37:00,
2013-01-30 13:42:00,45.5,43.3,29.58,North,0,0.0,0.0,92,0.00,,OVC002,0.00,VWS V13.01,2013-01-30 18:42:00,
2013-01-30 13:47:00,45.3,43.1,29.58,North,0,0.0,0.0,92,0.00,,OVC002,0.00,VWS V13.01,2013-01-30 18:47:00,
2013-01-30 13:52:00,45.3,43.4,29.58,North,0,0.0,0.0,93,0.04,,OVC002,0.04,VWS V13.01,2013-01-30 18:52:00,
2013-01-30 13:57:00,45.5,43.6,29.58,North,0,0.0,0.0,93,0.04,,OVC002,0.04,VWS V13.01,2013-01-30 18:57:00,
2013-01-30 14:02:00,45.9,44.0,29.58,North,0,0.0,0.0,93,0.04,,OVC002,0.04,VWS V13.01,2013-01-30 19:02:00,
2013-01-30 14:07:00,45.9,44.0,29.55,North,0,0.0,0.0,93,0.04,,OVC002,0.04,VWS V13.01,2013-01-30 19:07:00,
2013-01-30 14:12:00,46.0,44.1,29.55,North,0,0.0,0.0,93,0.04,,OVC002,0.04,VWS V13.01,2013-01-30 19:12:00,
2013-01-30 14:17:00,46.0,44.4,29.55,North,0,0.0,0.0,94,0.04,,OVC002,0.04,VWS V13.01,2013-01-30 19:17:00,
2013-01-30 14:22:00,46.4,44.5,29.55,North,0,0.0,0.0,93,0.04,,OVC002,0.04,VWS V13.01,2013-01-30 19:22:00,
2013-01-30 14:27:00,46.8,45.1,29.55,North,0,0.0,0.0,94,0.04,,OVC002,0.04,VWS V13.01,2013-01-30 19:27:00,
2013-01-30 14:32:00,46.9,45.3,29.55,North,0,0.0,0.0,94,0.04,,OVC002,0.04,VWS V13.01,2013-01-30 19:32:00,
2013-01-30 14:37:00,47.1,45.5,29.55,North,0,0.0,0.0,94,0.04,,OVC002,0.04,VWS V13.01,2013-01-30 19:37:00,
2013-01-30 14:42:00,47.3,45.7,29.55,North,0,0.0,0.0,94,0.04,,OVC002,0.04,VWS V13.01,2013-01-30 19:42:00,
2013-01-30 14:47:00,47.3,45.7,29.55,North,0,0.0,0.0,94,0.04,,OVC002,0.04,VWS V13.01,2013-01-30 19:47:00,
2013-01-30 14:52:00,47.3,45.9,29.52,North,0,0.0,0.0,95,0.00,,OVC001,0.04,VWS V13.01,2013-01-30 19:52:00,
2013-01-30 14:57:00,47.5,46.1,29.52,North,0,0.0,0.0,95,0.00,,OVC001,0.04,VWS V13.01,2013-01-30 19:57:00,
2013-01-30 15:02:00,47.5,46.1,29.52,North,0,0.0,0.0,95,0.00,,OVC001,0.04,VWS V13.01,2013-01-30 20:02:00,
2013-01-30 15:07:00,47.8,46.5,29.52,North,0,0.0,0.0,95,0.00,,OVC001,0.04,VWS V13.01,2013-01-30 20:07:00,
2013-01-30 15:12:00,47.8,46.5,29.52,North,0,0.0,0.0,95,0.00,,OVC001,0.04,VWS V13.01,2013-01-30 20:12:00,
2013-01-30 15:17:00,48.2,46.8,29.52,North,0,0.0,0.0,95,0.00,,OVC001,0.04,VWS V13.01,2013-01-30 20:17:00,
2013-01-30 15:22:00,48.6,47.2,29.52,North,0,0.0,0.0,95,0.00,,OVC001,0.04,VWS V13.01,2013-01-30 20:22:00,
2013-01-30 15:27:00,48.7,47.7,29.52,North,0,0.0,0.0,96,0.00,,OVC001,0.04,VWS V13.01,2013-01-30 20:27:00,
2013-01-30 15:32:00,49.1,48.0,29.52,North,0,0.0,0.0,96,0.00,,OVC001,0.04,VWS V13.01,2013-01-30 20:32:00,
2013-01-30 15:37:00,49.1,48.0,29.52,North,0,0.0,0.0,96,0.00,,OVC001,0.04,VWS V13.01,2013-01-30 20:37:00,
2013-01-30 15:42:00,48.9,47.8,29.52,North,0,0.0,0.0,96,0.00,,OVC001,0.04,VWS V13.01,2013-01-30 20:42:00,
2013-01-30 15:47:00,48.7,47.7,29.52,North,0,0.0,0.0,96,0.00,,OVC001,0.04,VWS V13.01,2013-01-30 20:47:00,
2013-01-30 15:52:00,49.1,48.0,29.52,North,0,0.0,0.0,96,0.00,,OVC008,0.04,VWS V13.01,2013-01-30 20:52:00,
2013-01-30 15:57:00,49.3,48.2,29.52,North,0,0.0,0.0,96,0.00,,OVC008,0.04,VWS V13.01,2013-01-30 20:57:00,
2013-01-30 16:02:00,49.5,48.4,29.52,North,0,0.0,0.0,96,0.00,,OVC008,0.04,VWS V13.01,2013-01-30 21:02:00,
2013-01-30 16:07:00,49.6,48.8,29.52,North,0,0.0,0.0,97,0.00,,OVC008,0.04,VWS V13.01,2013-01-30 21:07:00,
2013-01-30 16:12:00,49.5,48.7,29.52,North,0,0.0,0.0,97,0.00,,OVC008,0.04,VWS V13.01,2013-01-30 21:12:00,
2013-01-30 16:17:00,49.6,48.8,29.52,North,0,0.0,0.0,97,0.00,,OVC008,0.04,VWS V13.01,2013-01-30 21:17:00,
2013-01-30 16:22:00,50.0,49.2,29.55,North,0,0.0,0.0,97,0.00,,OVC008,0.04,VWS V13.01,2013-01-30 21:22:00,
2013-01-30 16:27:00,50.0,49.2,29.55,North,0,0.0,0.0,97,0.00,,OVC008,0.04,VWS V13.01,2013-01-30 21:27:00,
2013-01-30 16:33:00,50.2,49.4,29.55,North,0,0.0,0.0,97,0.00,,OVC008,0.04,VWS V13.01,2013-01-30 21:33:00,
2013-01-30 16:38:00,50.4,49.5,29.52,North,0,0.0,0.0,97,0.00,,OVC008,0.04,VWS V13.01,2013-01-30 21:38:00,
2013-01-30 16:42:00,50.5,49.7,29.52,North,0,0.0,0.0,97,0.00,,OVC008,0.04,VWS V13.01,2013-01-30 21:42:00,
2013-01-30 16:48:00,50.4,49.5,29.52,North,0,0.0,0.0,97,0.00,,OVC008,0.04,VWS V13.01,2013-01-30 21:48:00,
2013-01-30 16:53:00,50.4,49.5,29.52,North,0,0.0,0.0,97,0.00,,OVC008,0.04,VWS V13.01,2013-01-30 21:53:00,
2013-01-30 16:58:00,50.7,49.9,29.52,North,0,0.0,0.0,97,0.00,,OVC008,0.04,VWS V13.01,2013-01-30 21:58:00,
2013-01-30 17:02:00,50.7,49.9,29.52,North,0,0.0,0.0,97,0.00,,OVC008,0.04,VWS V13.01,2013-01-30 22:02:00,
2013-01-30 17:07:00,50.7,49.9,29.52,North,0,0.0,0.0,97,0.00,,OVC008,0.04,VWS V13.01,2013-01-30 22:07:00,
2013-01-30 17:13:00,50.9,50.1,29.52,North,0,0.0,0.0,97,0.00,,OVC008,0.04,VWS V13.01,2013-01-30 22:13:00,
2013-01-30 17:18:00,50.9,50.4,29.52,North,0,0.0,0.0,98,0.00,,OVC008,0.04,VWS V13.01,2013-01-30 22:18:00,
2013-01-30 17:23:00,50.9,50.4,29.52,North,0,0.0,0.0,98,0.00,,OVC008,0.04,VWS V13.01,2013-01-30 22:23:00,
2013-01-30 17:28:00,50.9,50.4,29.52,North,0,0.0,0.0,98,0.00,,OVC008,0.04,VWS V13.01,2013-01-30 22:28:00,
2013-01-30 17:33:00,51.1,50.5,29.52,North,0,0.0,0.0,98,0.00,,OVC008,0.04,VWS V13.01,2013-01-30 22:33:00,
2013-01-30 17:38:00,50.9,50.4,29.52,North,0,0.0,0.0,98,0.00,,OVC008,0.04,VWS V13.01,2013-01-30 22:38:00,
2013-01-30 17:43:00,50.9,50.4,29.52,North,0,0.0,0.0,98,0.00,,OVC008,0.04,VWS V13.01,2013-01-30 22:43:00,
2013-01-30 17:48:00,50.9,50.4,29.52,North,0,0.0,0.0,98,0.00,,OVC008,0.04,VWS V13.01,2013-01-30 22:48:00,
2013-01-30 17:53:00,51.1,50.5,29.52,North,0,0.0,0.0,98,0.00,,OVC008,0.04,VWS V13.01,2013-01-30 22:53:00,
2013-01-30 17:58:00,51.1,50.5,29.52,North,0,0.0,0.0,98,0.00,,OVC008,0.04,VWS V13.01,2013-01-30 22:58:00,
2013-01-30 18:03:00,51.1,50.5,29.52,North,0,0.0,0.0,98,0.00,,OVC008,0.04,VWS V13.01,2013-01-30 23:03:00,
2013-01-30 18:08:00,51.1,50.5,29.52,North,0,0.0,0.0,98,0.00,,OVC008,0.04,VWS V13.01,2013-01-30 23:08:00,
2013-01-30 18:13:00,51.1,50.5,29.52,North,0,0.0,0.0,98,0.00,,OVC008,0.04,VWS V13.01,2013-01-30 23:13:00,
2013-01-30 18:18:00,51.3,50.7,29.52,North,0,0.0,0.0,98,0.00,,OVC008,0.04,VWS V13.01,2013-01-30 23:18:00,
2013-01-30 18:23:00,51.1,50.5,29.52,North,0,0.0,0.0,98,0.00,,OVC008,0.04,VWS V13.01,2013-01-30 23:23:00,
2013-01-30 18:28:00,51.1,50.5,29.52,North,0,0.0,0.0,98,0.00,,OVC008,0.04,VWS V13.01,2013-01-30 23:28:00,
2013-01-30 18:33:00,51.4,50.9,29.52,North,0,0.0,0.0,98,0.00,,OVC004,0.04,VWS V13.01,2013-01-30 23:33:00,
2013-01-30 18:38:00,51.6,51.1,29.49,North,0,0.0,0.0,98,0.00,,OVC004,0.04,VWS V13.01,2013-01-30 23:38:00,
2013-01-30 18:43:00,51.3,50.7,29.49,North,0,0.0,0.0,98,0.00,,OVC004,0.04,VWS V13.01,2013-01-30 23:43:00,
2013-01-30 18:48:00,51.6,51.1,29.49,North,0,0.0,0.0,98,0.00,,OVC004,0.04,VWS V13.01,2013-01-30 23:48:00,
2013-01-30 18:53:00,51.6,51.1,29.49,North,0,0.0,0.0,98,0.00,,OVC004,0.04,VWS V13.01,2013-01-30 23:53:00,
2013-01-30 18:58:00,51.8,51.3,29.49,North,0,0.0,0.0,98,0.00,,OVC004,0.04,VWS V13.01,2013-01-30 23:58:00,
2013-01-30 19:03:00,51.8,51.3,29.49,North,0,0.0,0.0,98,0.00,,OVC004,0.04,VWS V13.01,2013-01-31 00:03:00,
2013-01-30 19:08:00,51.8,51.3,29.52,North,0,0.0,0.0,98,0.00,,OVC004,0.04,VWS V13.01,2013-01-31 00:08:00,
2013-01-30 19:13:00,51.8,51.3,29.52,North,0,0.0,0.0,98,0.00,,OVC004,0.04,VWS V13.01,2013-01-31 00:13:00,
2013-01-30 19:18:00,52.0,51.4,29.52,North,0,0.0,0.0,98,0.00,,OVC004,0.04,VWS V13.01,2013-01-31 00:18:00,
2013-01-30 19:23:00,51.8,51.3,29.49,North,0,0.0,0.0,98,0.04,,OVC004,0.08,VWS V13.01,2013-01-31 00:23:00,
2013-01-30 19:28:00,51.8,51.3,29.49,North,0,0.0,0.0,98,0.04,,OVC004,0.08,VWS V13.01,2013-01-31 00:28:00,
2013-01-30 19:33:00,51.6,51.1,29.49,North,0,0.0,0.0,98,0.04,,OVC004,0.08,VWS V13.01,2013-01-31 00:33:00,
2013-01-30 19:38:00,51.6,51.1,29.49,North,0,0.0,0.0,98,0.04,,OVC004,0.08,VWS V13.01,2013-01-31 00:38:00,
2013-01-30 19:43:00,51.6,51.1,29.49,North,0,0.0,0.0,98,0.04,,OVC004,0.08,VWS V13.01,2013-01-31 00:43:00,
2013-01-30 19:48:00,51.8,51.3,29.49,North,0,0.0,0.0,98,0.04,,OVC004,0.08,VWS V13.01,2013-01-31 00:48:00,
2013-01-30 19:53:00,52.0,51.4,29.47,North,0,0.0,0.0,98,0.04,,OVC006,0.08,VWS V13.01,2013-01-31 00:53:00,
2013-01-30 19:58:00,52.2,51.6,29.47,North,0,0.0,0.0,98,0.04,,OVC006,0.08,VWS V13.01,2013-01-31 00:58:00,
2013-01-30 20:03:00,52.2,51.6,29.47,North,0,0.0,0.0,98,0.04,,OVC006,0.08,VWS V13.01,2013-01-31 01:03:00,
2013-01-30 20:08:00,52.5,52.0,29.47,North,0,0.0,0.0,98,0.04,,OVC006,0.08,VWS V13.01,2013-01-31 01:08:00,
2013-01-30 20:13:00,52.3,51.8,29.47,North,0,0.0,0.0,98,0.04,,OVC006,0.08,VWS V13.01,2013-01-31 01:13:00,
2013-01-30 20:18:00,52.3,51.8,29.47,North,0,0.0,0.0,98,0.04,,OVC006,0.08,VWS V13.01,2013-01-31 01:18:00,
2013-01-30 20:23:00,52.5,52.0,29.47,North,0,0.0,0.0,98,0.00,,OVC006,0.08,VWS V13.01,2013-01-31 01:23:00,
2013-01-30 20:28:00,52.5,52.0,29.47,North,0,0.0,0.0,98,0.00,,OVC006,0.08,VWS V13.01,2013-01-31 01:28:00,
2013-01-30 20:33:00,52.7,52.2,29.47,North,0,0.0,0.0,98,0.00,,OVC006,0.08,VWS V13.01,2013-01-31 01:33:00,
2013-01-30 20:38:00,52.7,52.2,29.47,North,0,0.0,0.0,98,0.00,,OVC006,0.08,VWS V13.01,2013-01-31 01:38:00,
2013-01-30 20:43:00,52.7,52.2,29.47,North,0,0.0,0.0,98,0.00,,OVC006,0.08,VWS V13.01,2013-01-31 01:43:00,
2013-01-30 20:48:00,52.5,52.0,29.47,North,0,0.0,0.0,98,0.00,,OVC006,0.08,VWS V13.01,2013-01-31 01:48:00,
2013-01-30 20:53:00,52.7,52.2,29.47,North,0,0.0,0.0,98,0.00,,OVC010,0.08,VWS V13.01,2013-01-31 01:53:00,
2013-01-30 20:58:00,52.7,52.2,29.47,North,0,0.0,0.0,98,0.00,,OVC010,0.08,VWS V13.01,2013-01-31 01:58:00,
2013-01-30 21:03:00,52.9,52.3,29.47,North,0,0.0,0.0,98,0.00,,OVC010,0.08,VWS V13.01,2013-01-31 02:03:00,
2013-01-30 21:08:00,52.9,52.3,29.44,North,0,0.0,0.0,98,0.00,,OVC010,0.08,VWS V13.01,2013-01-31 02:08:00,
2013-01-30 21:13:00,52.9,52.3,29.44,North,0,0.0,0.0,98,0.00,,OVC010,0.08,VWS V13.01,2013-01-31 02:13:00,
2013-01-30 21:18:00,53.1,52.5,29.44,North,0,0.0,0.0,98,0.00,,OVC010,0.08,VWS V13.01,2013-01-31 02:18:00,
2013-01-30 21:23:00,53.1,52.5,29.47,North,0,0.0,0.0,98,0.00,,OVC010,0.08,VWS V13.01,2013-01-31 02:23:00,
2013-01-30 21:28:00,53.1,52.5,29.47,North,0,0.0,0.0,98,0.00,,OVC010,0.08,VWS V13.01,2013-01-31 02:28:00,
2013-01-30 21:33:00,53.1,52.5,29.47,North,0,0.0,0.0,98,0.00,,OVC010,0.08,VWS V13.01,2013-01-31 02:33:00,
2013-01-30 21:38:00,53.1,52.5,29.47,North,0,0.0,0.0,98,0.00,,OVC010,0.08,VWS V13.01,2013-01-31 02:38:00,
2013-01-30 21:43:00,53.1,52.5,29.47,North,0,0.0,0.0,98,0.00,,OVC010,0.08,VWS V13.01,2013-01-31 02:43:00,
2013-01-30 21:48:00,52.9,52.3,29.47,North,0,0.0,0.0,98,0.00,,OVC010,0.08,VWS V13.01,2013-01-31 02:48:00,
2013-01-30 21:54:00,52.9,52.3,29.44,North,0,0.0,0.0,98,0.00,,OVC010,0.08,VWS V13.01,2013-01-31 02:54:00,
2013-01-30 21:59:00,52.9,52.3,29.44,North,0,0.0,0.0,98,0.00,,OVC010,0.08,VWS V13.01,2013-01-31 02:59:00,
2013-01-30 22:04:00,52.9,52.3,29.44,North,0,0.0,0.0,98,0.00,,OVC010,0.08,VWS V13.01,2013-01-31 03:04:00,
2013-01-30 22:09:00,52.9,52.3,29.41,North,0,0.0,0.0,98,0.00,,OVC010,0.08,VWS V13.01,2013-01-31 03:09:00,
2013-01-30 22:14:00,52.7,52.2,29.41,North,0,0.0,0.0,98,0.00,,OVC010,0.08,VWS V13.01,2013-01-31 03:14:00,
2013-01-30 22:19:00,52.7,52.2,29.41,North,0,0.0,0.0,98,0.00,,OVC010,0.08,VWS V13.01,2013-01-31 03:19:00,
2013-01-30 22:24:00,52.9,52.3,29.41,North,0,0.0,0.0,98,0.00,,OVC010,0.08,VWS V13.01,2013-01-31 03:24:00,
2013-01-30 22:29:00,53.1,52.5,29.41,North,0,0.0,0.0,98,0.00,,OVC010,0.08,VWS V13.01,2013-01-31 03:29:00,
2013-01-30 22:34:00,53.1,52.5,29.41,North,0,0.0,0.0,98,0.00,,OVC010,0.08,VWS V13.01,2013-01-31 03:34:00,
2013-01-30 22:39:00,52.9,52.3,29.44,North,0,0.0,0.0,98,0.00,,OVC010,0.08,VWS V13.01,2013-01-31 03:39:00,
2013-01-30 22:44:00,53.1,52.5,29.44,North,0,0.0,0.0,98,0.00,,OVC010,0.08,VWS V13.01,2013-01-31 03:44:00,
2013-01-30 22:49:00,52.9,52.3,29.44,North,0,0.0,0.0,98,0.00,,OVC010,0.08,VWS V13.01,2013-01-31 03:49:00,
2013-01-30 22:54:00,52.9,52.3,29.41,North,0,0.0,0.0,98,0.00,,OVC008,0.08,VWS V13.01,2013-01-31 03:54:00,
2013-01-30 22:59:00,52.9,52.3,29.41,North,0,0.0,0.0,98,0.00,,OVC008,0.08,VWS V13.01,2013-01-31 03:59:00,
2013-01-30 23:04:00,52.9,52.3,29.41,North,0,0.0,0.0,98,0.00,,OVC008,0.08,VWS V13.01,2013-01-31 04:04:00,
2013-01-30 23:09:00,52.9,52.3,29.41,North,0,0.0,0.0,98,0.00,,OVC008,0.08,VWS V13.01,2013-01-31 04:09:00,
2013-01-30 23:14:00,52.9,52.3,29.41,North,0,0.0,0.0,98,0.00,,OVC008,0.08,VWS V13.01,2013-01-31 04:14:00,
2013-01-30 23:19:00,52.7,52.2,29.41,North,0,0.0,0.0,98,0.00,,OVC008,0.08,VWS V13.01,2013-01-31 04:19:00,
2013-01-30 23:24:00,52.9,52.3,29.38,North,0,0.0,0.0,98,0.00,,OVC008,0.08,VWS V13.01,2013-01-31 04:24:00,
2013-01-30 23:29:00,52.9,52.3,29.38,North,0,0.0,0.0,98,0.00,,OVC008,0.08,VWS V13.01,2013-01-31 04:29:00,
2013-01-30 23:34:00,52.9,52.3,29.38,North,0,0.0,0.0,98,0.00,,OVC008,0.08,VWS V13.01,2013-01-31 04:34:00,
2013-01-30 23:39:00,52.9,52.3,29.35,North,0,0.0,0.0,98,0.00,,OVC008,0.08,VWS V13.01,2013-01-31 04:39:00,
2013-01-30 23:44:00,53.1,52.5,29.35,North,0,0.0,0.0,98,0.00,,OVC008,0.08,VWS V13.01,2013-01-31 04:44:00,
2013-01-30 23:49:00,53.1,52.5,29.35,North,0,0.0,0.0,98,0.00,,OVC008,0.08,VWS V13.01,2013-01-31 04:49:00,
2013-01-30 23:54:00,53.2,52.7,29.35,North,0,0.0,0.0,98,0.00,,OVC008,0.08,VWS V13.01,2013-01-31 04:54:00,
2013-01-30 23:59:00,53.1,52.5,29.35,North,0,0.0,0.0,98,0.00,,OVC008,0.08,VWS V13.01,2013-01-31 04:59:00,